Latest Coastal Weather Observations for Cape Willoughby

IDS60701

Issued at 11:21 pm CST Friday 26 August 2016 (issued every 10 minutes, with the page automatically refreshed every 10 minutes)

About coastal observations | Map of coastal stations | Coastal observations for SA | Marine services | Other Formats
Station Details ID: 022803 Name: CAPE WILLOUGHBY Lat: -35.84 Lon: 138.13 Height: 55.0 m
Data from the previous 72 hours. | See also: Recent months at Cape Willoughby
Date/Time
CST
Temp
°C
Wind Pressure Rain since
9am
mm
Weather Cloud Vis
km
Sea
Height
m
Swell
Dir  Spd
kts
Gust
kts
hPa Trend Height
m
Period
s
Dir
26/11:00pm 9.8 NW 9 10 1022.7 - 0.0 - - - - - - -
26/10:30pm 9.4 WNW 10 11 1023.1 - 0.0 - - - - - - -
26/10:00pm 8.9 NW 10 11 1023.2 - 0.0 - - - - - - -
26/09:30pm 9.0 WNW 11 11 1023.5 - 0.0 - - - - - - -
26/09:00pm 8.9 NW 12 12 1023.5 - 0.0 - - - - - - -
26/08:30pm 9.2 NW 11 11 1023.4 - 0.0 - - - - - - -
26/08:00pm 9.7 NW 9 10 1023.7 - 0.0 - - - - - - -
26/07:30pm 9.5 WNW 10 11 1023.6 - 0.0 - - - - - - -
26/07:00pm 9.8 NW 9 10 1023.6 - 0.0 - - - - - - -
26/06:30pm 11.0 WNW 9 11 1023.5 - 0.0 - - - - - - -
26/06:00pm 11.6 NW 8 10 1023.1 - 0.0 - - - - - - -
26/05:30pm 11.6 NNW 9 12 1022.9 - 0.0 - - - - - - -
26/05:00pm 11.6 NNW 9 12 1022.9 - 0.0 - - - - - - -
26/04:30pm 11.7 NNW 10 13 1022.8 - 0.0 - - - - - - -
26/04:00pm 11.7 NNW 13 16 1022.5 - 0.0 - - - - - - -
26/03:30pm 12.7 WNW 6 9 1022.6 - 0.0 - - - - - - -
26/03:00pm 12.5 WNW 6 9 1022.8 - 0.0 - - - - - - -
26/02:30pm 12.2 NNW 11 16 1022.9 - 0.0 - - - - - - -
26/02:00pm 12.4 NNW 13 16 1023.1 - 0.0 - - - - - - -
26/01:30pm 12.7 NNW 9 12 1023.3 - 0.0 - - - - - - -
26/01:00pm 12.3 NW 7 10 1023.6 - 0.0 - - - - - - -
26/12:30pm 12.6 WNW 5 8 1024.0 - 0.0 - - - - - - -
26/12:00pm 12.2 WNW 6 9 1024.3 - 0.0 - - - - - - -
26/11:30am 12.3 WNW 7 11 1024.7 - 0.0 - - - - - - -
26/11:00am 11.4 NW 8 9 1025.1 - 0.0 - - - - - - -
26/10:30am 11.4 WNW 9 11 1025.1 - 0.0 - - - - - - -
26/10:00am 11.2 WNW 8 11 1025.1 - 0.0 - - - - - - -
26/09:30am 10.7 WNW 8 10 1025.2 - 0.0 - - - - - - -
26/09:00am 10.5 WNW 8 9 1025.1 - 2.0 - - - - - - -
26/08:30am 9.9 WNW 8 9 1025.0 - 2.0 - - - - - - -
26/08:00am 9.7 WNW 7 9 1025.0 - 2.0 - - - - - - -
26/07:30am 9.6 WNW 10 11 1024.8 - 2.0 - - - - - - -
26/07:00am 9.6 WNW 9 10 1024.4 - 2.0 - - - - - - -
26/06:30am 9.6 WNW 6 9 1024.2 - 2.0 - - - - - - -
26/06:00am 10.3 WSW 6 8 1023.9 - 2.0 Recent precip. - - - - - -
26/05:30am 9.7 W 8 10 1023.6 - 2.0 - - - - - - -
26/05:00am 9.4 W 8 9 1023.4 - 1.8 - - - - - - -
26/04:30am 9.5 W 8 9 1023.1 - 1.8 - - - - - - -
26/04:00am 9.3 W 7 9 1022.8 - 1.8 - - - - - - -
26/03:30am 9.5 WSW 8 10 1022.8 - 1.8 - - - - - - -
26/03:00am 10.1 WSW 9 11 1023.0 - 1.8 - - - - - - -
26/02:30am 10.4 WSW 9 12 1023.1 - 1.8 - - - - - - -
26/02:00am 10.3 WSW 9 11 1023.1 - 1.8 - - - - - - -
26/01:30am 10.2 WSW 9 11 1023.2 - 1.8 - - - - - - -
26/01:00am 10.2 WSW 7 8 1023.1 - 1.8 - - - - - - -
26/12:30am 10.2 WSW 7 8 1023.1 - 1.8 - - - - - - -
26/12:00am 11.0 SW 9 14 1023.1 - 1.8 - - - - - - -
 
Date/Time
CST
Temp
°C
Wind Pressure Rain since
9am
mm
Weather Cloud Vis
km
Sea
Height
m
Swell
Dir  Spd
kts
Gust
kts
hPa Trend Height
m
Period
s
Dir
25/11:30pm 10.5 WSW 7 9 1023.1 - 1.8 - - - - - - -
25/11:00pm 10.6 SW 8 13 1023.1 - 1.8 - - - - - - -
25/10:30pm 10.4 WSW 8 11 1023.0 - 1.8 - - - - - - -
25/10:00pm 11.3 SW 12 17 1023.1 - 1.8 - - - - - - -
25/09:30pm 10.9 SW 11 15 1023.0 - 1.8 - - - - - - -
25/09:00pm 10.4 WSW 8 12 1023.0 - 1.8 - - - - - - -
25/08:30pm 11.4 SSW 14 17 1022.7 - 1.8 - - - - - - -
25/08:00pm 11.7 S 11 16 1022.5 - 1.8 - - - - - - -
25/07:30pm 11.7 S 12 16 1022.4 - 1.8 - - - - - - -
25/07:00pm 11.5 S 12 17 1022.0 - 1.8 - - - - - - -
25/06:30pm 10.8 SW 5 7 1021.8 - 1.8 - - - - - - -
25/06:00pm 10.9 SSW 5 7 1021.7 - 1.8 - - - - - - -
25/05:30pm 10.6 SSW 4 6 1021.5 - 1.8 - - - - - - -
25/05:00pm 10.4 SSW 12 15 1021.3 - 1.8 - - - - - - -
25/04:30pm 10.4 S 11 17 1021.2 - 1.6 - - - - - - -
25/04:00pm 11.0 S 12 17 1020.8 - 1.6 - - - - - - -
25/03:30pm 12.0 SW 13 17 1020.6 - 1.6 - - - - - - -
25/03:00pm 12.4 SW 10 13 1020.5 - 1.4 - - - - - - -
25/02:30pm 12.1 SSW 8 12 1020.3 - 1.4 - - - - - - -
25/02:00pm 11.5 SSW 8 14 1020.2 - 1.4 - - - - - - -
25/01:30pm 10.6 SSW 11 14 1020.4 - 1.4 - - - - - - -
25/01:06pm 11.1 S 11 24 1020.3 - 0.0 - - - - - - -
25/01:00pm 11.8 S 9 13 1020.5 - 0.0 - - - - - - -
25/12:30pm 11.9 S 10 16 1020.6 - 0.0 - - - - - - -
25/12:00pm 12.7 SSW 5 10 1020.8 - 0.0 - - - - - - -
25/11:30am 12.7 S 5 11 1020.9 - 0.0 - - - - - - -
25/11:00am 12.5 S 5 9 1021.0 - 0.0 - - - - - - -
25/10:30am 12.4 S 6 8 1020.9 - 0.0 - - - - - - -
25/10:00am 12.4 S 5 8 1020.9 - 0.0 - - - - - - -
25/09:30am 12.1 S 6 9 1020.9 - 0.0 - - - - - - -
25/09:00am 11.8 S 7 10 1020.5 - 0.0 - - - - - - -
25/08:30am 11.6 S 7 10 1020.1 - 0.0 - - - - - - -
25/08:00am 11.4 SSE 7 10 1019.8 - 0.0 - - - - - - -
25/07:30am 11.1 SSE 8 10 1019.4 - 0.0 - - - - - - -
25/07:00am 10.8 SSE 9 12 1019.0 - 0.0 - - - - - - -
25/06:30am 10.7 SSE 9 13 1018.8 - 0.0 - - - - - - -
25/06:00am 10.9 SSE 9 11 1018.5 - 0.0 - - - - - - -
25/05:30am 10.8 SSE 10 13 1018.2 - 0.0 - - - - - - -
25/05:00am 10.7 SSE 9 13 1018.1 - 0.0 - - - - - - -
25/04:30am 10.8 SSE 10 13 1017.9 - 0.0 - - - - - - -
25/04:00am 10.7 SSE 8 12 1017.8 - 0.0 - - - - - - -
25/03:30am 10.8 SSE 8 11 1017.7 - 0.0 - - - - - - -
25/03:00am 10.8 SSE 8 10 1017.7 - 0.0 - - - - - - -
25/02:30am 10.6 SE 10 14 1017.7 - 0.0 - - - - - - -
25/02:00am 10.8 SSE 10 13 1017.8 - 0.0 - - - - - - -
25/01:30am 10.7 SSE 10 14 1017.8 - 0.0 - - - - - - -
25/01:00am 10.7 SE 10 13 1017.8 - 0.0 - - - - - - -
25/12:30am 10.7 SE 11 13 1017.7 - 0.0 - - - - - - -
25/12:00am 10.9 SE 11 14 1017.8 - 0.0 - - - - - - -
 
Date/Time
CST
Temp
°C
Wind Pressure Rain since
9am
mm
Weather Cloud Vis
km
Sea
Height
m
Swell
Dir  Spd
kts
Gust
kts
hPa Trend Height
m
Period
s
Dir
24/11:30pm 10.8 SE 10 12 1017.9 - 0.0 - - - - - - -
24/11:00pm 10.7 SE 11 14 1018.0 - 0.0 - - - - - - -
24/10:30pm 10.8 SE 11 15 1018.0 - 0.0 - - - - - - -
24/10:00pm 10.8 SE 12 15 1018.1 - 0.0 - - - - - - -
24/09:30pm 10.9 SE 12 15 1018.1 - 0.0 - - - - - - -
24/09:00pm 10.9 SE 12 16 1017.9 - 0.0 - - - - - - -
24/08:30pm 10.8 SE 11 15 1017.8 - 0.0 - - - - - - -
24/08:00pm 10.9 SE 13 17 1017.6 - 0.0 - - - - - - -
24/07:30pm 10.9 ESE 11 15 1017.4 - 0.0 - - - - - - -
24/07:00pm 10.8 SE 13 17 1017.3 - 0.0 - - - - - - -
24/06:30pm 10.9 ESE 13 15 1016.9 - 0.0 - - - - - - -
24/06:00pm 10.9 SE 12 15 1016.7 - 0.0 - - - - - - -
24/05:30pm 10.8 ESE 11 14 1016.3 - 0.0 - - - - - - -
24/05:00pm 11.1 ESE 11 13 1016.2 - 0.0 - - - - - - -
24/04:30pm 11.3 ESE 10 13 1015.8 - 0.0 - - - - - - -
24/04:00pm 11.3 ESE 11 14 1015.6 - 0.0 - - - - - - -
24/03:30pm 11.5 ESE 11 13 1015.7 - 0.0 - - - - - - -
24/03:00pm 11.7 ESE 11 14 1015.7 - 0.0 - - - - - - -
24/02:30pm 12.0 ESE 11 15 1015.7 - 0.0 - - - - - - -
24/02:00pm 12.1 ESE 11 14 1015.7 - 0.0 - - - - - - -
24/01:30pm 12.2 ESE 10 13 1015.8 - 0.0 - - - - - - -
24/01:00pm 12.4 E 11 12 1016.2 - 0.0 - - - - - - -
24/12:30pm 12.4 E 10 14 1016.3 - 0.0 - - - - - - -
24/12:00pm 12.5 E 10 13 1016.5 - 0.0 - - - - - - -
24/11:30am 12.4 E 11 13 1016.8 - 0.0 - - - - - - -
24/11:00am 12.7 E 11 14 1016.7 - 0.0 - - - - - - -
24/10:30am 12.7 E 10 12 1016.7 - 0.0 - - - - - - -
24/10:00am 12.5 E 10 12 1016.7 - 0.0 - - - - - - -
24/09:30am 12.4 E 10 12 1016.9 - 0.0 - - - - - - -
24/09:00am 12.2 E 10 12 1016.9 - 0.2 - - - - - - -
24/08:30am 12.0 ESE 9 12 1016.8 - 0.2 - - - - - - -
24/08:00am 12.0 ESE 9 12 1016.8 - 0.2 - - - - - - -
24/07:30am 11.3 ESE 7 10 1016.6 - 0.2 - - - - - - -
24/07:00am 11.1 ESE 7 9 1016.5 - 0.2 - - - - - - -
24/06:30am 10.9 E 5 8 1016.2 - 0.2 - - - - - - -
24/06:00am 10.5 E 4 5 1016.0 - 0.2 - - - - - - -
24/05:30am 10.5 ENE 4 5 1016.0 - 0.2 - - - - - - -
24/05:00am 10.5 ENE 3 4 1015.9 - 0.2 - - - - - - -
24/04:30am 10.6 ENE 5 7 1015.9 - 0.2 - - - - - - -
24/04:00am 10.7 ENE 5 7 1015.8 - 0.2 - - - - - - -
24/03:30am 10.6 NE 7 8 1015.7 - 0.2 - - - - - - -
24/03:00am 10.7 NE 6 8 1015.9 - 0.2 - - - - - - -
24/02:30am 10.5 NE 7 9 1016.1 - 0.2 - - - - - - -
24/02:00am 10.8 NE 6 8 1016.3 - 0.2 - - - - - - -
24/01:30am 11.0 NE 8 10 1016.5 - 0.2 - - - - - - -
24/01:00am 11.7 E 11 15 1016.4 - 0.2 - - - - - - -
24/12:30am 11.8 E 13 17 1016.3 - 0.2 - - - - - - -
24/12:00am 11.6 E 13 15 1016.5 - 0.2 Recent precip. - - - - - -
 
Date/Time
CST
Temp
°C
Wind Pressure Rain since
9am
mm
Weather Cloud Vis
km
Sea
Height
m
Swell
Dir  Spd
kts
Gust
kts
hPa Trend Height
m
Period
s
Dir
23/11:30pm 11.8 E 14 16 1016.6 - 0.2 - - - - - - -

Other Formats:

Comma delimited format used in spreadsheet applications
http://www.bom.gov.au/fwo/IDS60701/IDS60701.94822.axf

JavaScript Object Notation format (JSON) in row-major order
http://www.bom.gov.au/fwo/IDS60701/IDS60701.94822.json